sensor_id;sensor_type;location;lat;lon;timestamp;P1;durP1;ratioP1;P2;durP2;ratioP2
6436;SDS011;3251;53.550;9.918;2023-05-14T06:13:34;11.10;;;5.40;;
6436;SDS011;3251;53.550;9.918;2023-05-14T06:16:00;9.43;;;5.10;;
6436;SDS011;3251;53.550;9.918;2023-05-14T06:18:26;6.40;;;5.80;;
6436;SDS011;3251;53.550;9.918;2023-05-14T06:20:52;7.10;;;5.30;;
6436;SDS011;3251;53.550;9.918;2023-05-14T06:23:20;6.50;;;5.60;;
6436;SDS011;3251;53.550;9.918;2023-05-14T06:25:48;7.23;;;5.43;;
6436;SDS011;3251;53.550;9.918;2023-05-14T06:28:15;7.80;;;5.70;;
6436;SDS011;3251;53.550;9.918;2023-05-14T06:30:41;8.77;;;6.93;;
6436;SDS011;3251;53.550;9.918;2023-05-14T06:33:07;6.77;;;5.53;;
6436;SDS011;3251;53.550;9.918;2023-05-14T06:35:33;5.10;;;4.60;;
6436;SDS011;3251;53.550;9.918;2023-05-14T06:37:59;5.20;;;4.80;;
6436;SDS011;3251;53.550;9.918;2023-05-14T06:40:25;5.27;;;4.80;;
6436;SDS011;3251;53.550;9.918;2023-05-14T06:42:52;6.83;;;5.77;;
6436;SDS011;3251;53.550;9.918;2023-05-14T06:45:18;4.93;;;4.60;;
6436;SDS011;3251;53.550;9.918;2023-05-14T06:47:44;3.97;;;3.73;;
6436;SDS011;3251;53.550;9.918;2023-05-14T06:50:10;4.57;;;4.17;;
6436;SDS011;3251;53.550;9.918;2023-05-14T06:52:36;5.87;;;5.37;;
6436;SDS011;3251;53.550;9.918;2023-05-14T06:55:03;9.13;;;5.50;;
6436;SDS011;3251;53.550;9.918;2023-05-14T06:57:29;7.03;;;4.00;;
6436;SDS011;3251;53.550;9.918;2023-05-14T06:59:55;4.57;;;4.27;;
6436;SDS011;3251;53.550;9.918;2023-05-14T07:02:21;4.87;;;4.43;;
6436;SDS011;3251;53.550;9.918;2023-05-14T07:04:47;4.93;;;4.50;;
6436;SDS011;3251;53.550;9.918;2023-05-14T07:07:13;5.00;;;4.10;;
6436;SDS011;3251;53.550;9.918;2023-05-14T07:09:44;5.33;;;4.83;;
6436;SDS011;3251;53.550;9.918;2023-05-14T07:12:10;3.87;;;3.43;;
6436;SDS011;3251;53.550;9.918;2023-05-14T07:14:36;8.30;;;5.37;;
6436;SDS011;3251;53.550;9.918;2023-05-14T07:17:02;6.27;;;3.63;;
6436;SDS011;3251;53.550;9.918;2023-05-14T07:19:29;3.83;;;3.50;;
6436;SDS011;3251;53.550;9.918;2023-05-14T07:21:55;3.43;;;3.33;;
6436;SDS011;3251;53.550;9.918;2023-05-14T07:24:22;8.27;;;3.30;;
6436;SDS011;3251;53.550;9.918;2023-05-14T07:26:48;7.23;;;4.57;;
6436;SDS011;3251;53.550;9.918;2023-05-14T07:29:14;4.33;;;4.13;;
6436;SDS011;3251;53.550;9.918;2023-05-14T07:31:40;4.17;;;3.43;;
6436;SDS011;3251;53.550;9.918;2023-05-14T07:34:07;2.83;;;2.63;;
6436;SDS011;3251;53.550;9.918;2023-05-14T07:36:35;3.33;;;3.13;;
6436;SDS011;3251;53.550;9.918;2023-05-14T07:39:01;8.90;;;3.20;;
6436;SDS011;3251;53.550;9.918;2023-05-14T07:41:27;3.50;;;3.20;;
6436;SDS011;3251;53.550;9.918;2023-05-14T07:43:53;5.70;;;2.93;;
6436;SDS011;3251;53.550;9.918;2023-05-14T07:46:19;11.80;;;3.40;;
6436;SDS011;3251;53.550;9.918;2023-05-14T07:48:45;7.90;;;3.53;;
6436;SDS011;3251;53.550;9.918;2023-05-14T07:51:11;4.17;;;3.80;;
6436;SDS011;3251;53.550;9.918;2023-05-14T07:53:37;5.33;;;2.93;;
6436;SDS011;3251;53.550;9.918;2023-05-14T07:56:04;3.93;;;3.63;;
6436;SDS011;3251;53.550;9.918;2023-05-14T07:58:30;10.23;;;5.03;;
6436;SDS011;3251;53.550;9.918;2023-05-14T08:00:56;5.20;;;4.70;;
6436;SDS011;3251;53.550;9.918;2023-05-14T08:03:22;4.20;;;3.70;;
6436;SDS011;3251;53.550;9.918;2023-05-14T08:05:49;7.50;;;3.33;;
6436;SDS011;3251;53.550;9.918;2023-05-14T08:08:16;3.57;;;3.27;;
6436;SDS011;3251;53.550;9.918;2023-05-14T08:10:42;4.93;;;3.83;;
6436;SDS011;3251;53.550;9.918;2023-05-14T08:13:09;4.13;;;2.90;;
6436;SDS011;3251;53.550;9.918;2023-05-14T08:15:35;4.30;;;3.70;;
6436;SDS011;3251;53.550;9.918;2023-05-14T08:18:01;3.93;;;3.57;;
6436;SDS011;3251;53.550;9.918;2023-05-14T08:20:30;2.97;;;2.87;;
6436;SDS011;3251;53.550;9.918;2023-05-14T08:22:57;9.17;;;3.63;;
6436;SDS011;3251;53.550;9.918;2023-05-14T08:25:23;4.50;;;2.60;;
6436;SDS011;3251;53.550;9.918;2023-05-14T08:27:49;8.20;;;3.27;;
6436;SDS011;3251;53.550;9.918;2023-05-14T08:30:15;5.53;;;4.13;;
6436;SDS011;3251;53.550;9.918;2023-05-14T08:32:42;3.53;;;3.23;;
6436;SDS011;3251;53.550;9.918;2023-05-14T08:35:08;3.70;;;3.40;;
6436;SDS011;3251;53.550;9.918;2023-05-14T08:37:34;5.17;;;3.57;;
6436;SDS011;3251;53.550;9.918;2023-05-14T08:40:01;3.00;;;2.67;;
6436;SDS011;3251;53.550;9.918;2023-05-14T08:42:27;6.97;;;2.97;;
6436;SDS011;3251;53.550;9.918;2023-05-14T08:45:02;2.90;;;2.70;;
6436;SDS011;3251;53.550;9.918;2023-05-14T08:47:30;2.80;;;2.60;;
6436;SDS011;3251;53.550;9.918;2023-05-14T08:50:00;2.90;;;2.77;;
6436;SDS011;3251;53.550;9.918;2023-05-14T08:52:26;2.80;;;2.10;;
6436;SDS011;3251;53.550;9.918;2023-05-14T08:54:53;3.83;;;2.60;;
